Time;durP1;ratioP1;P1;durP2;ratioP2;P2;SDS_P1;SDS_P2;PMS_P1;PMS_P2;Temp;Humidity;BMP_temperature;BMP_pressure;BME280_temperature;BME280_humidity;BME280_pressure;Samples;Min_cycle;Max_cycle;Signal;HPM_P1;HPM_P2
2023/08/04 00:02:17;;;;;;;0.10;0.10;;;22.20;58.90;;;;;;6295672;28;20393;-66
2023/08/04 00:05:17;;;;;;;0.20;0.20;;;22.20;58.90;;;;;;6295464;28;20125;-66
2023/08/04 00:08:18;;;;;;;0.28;0.28;;;22.20;58.80;;;;;;6294232;28;20032;-66
2023/08/04 00:11:19;;;;;;;0.25;0.22;;;22.20;58.90;;;;;;6295614;28;20618;-66
2023/08/04 00:14:19;;;;;;;0.20;0.20;;;22.20;58.90;;;;;;6295420;28;20143;-66
2023/08/04 00:17:20;;;;;;;0.17;0.17;;;22.20;59.00;;;;;;6295469;28;20497;-66
2023/08/04 00:20:21;;;;;;;0.20;0.20;;;22.20;59.00;;;;;;6295513;28;20123;-66
2023/08/04 00:23:21;;;;;;;0.22;0.20;;;22.20;59.00;;;;;;6294934;28;20040;-66
2023/08/04 00:26:22;;;;;;;0.22;0.15;;;22.20;59.00;;;;;;6277313;28;20033;-66
2023/08/04 00:29:23;;;;;;;0.10;0.10;;;22.20;59.00;;;;;;6293659;28;20117;-66
2023/08/04 00:32:23;;;;;;;0.10;0.10;;;22.20;59.00;;;;;;6294937;28;20037;-66
2023/08/04 00:35:24;;;;;;;0.10;0.10;;;22.20;59.00;;;;;;6294642;28;20052;-66
2023/08/04 00:38:25;;;;;;;0.13;0.13;;;22.20;59.10;;;;;;6295066;28;20031;-66
2023/08/04 00:41:25;;;;;;;0.13;0.13;;;22.20;59.10;;;;;;6292936;28;20040;-66
2023/08/04 00:44:26;;;;;;;0.20;0.20;;;22.20;59.00;;;;;;6294920;28;20058;-66
2023/08/04 00:47:29;;;;;;;0.10;0.10;;;22.20;59.10;;;;;;6294682;28;20068;-66
2023/08/04 00:50:31;;;;;;;0.47;0.20;;;22.20;59.70;;;;;;6294528;28;20029;-66
2023/08/04 00:53:32;;;;;;;0.52;0.20;;;22.20;59.00;;;;;;6294217;28;20082;-66
2023/08/04 00:56:34;;;;;;;0.10;0.10;;;22.20;59.70;;;;;;6294438;28;20067;-66
2023/08/04 00:59:35;;;;;;;0.20;0.20;;;22.20;59.00;;;;;;6292880;28;20037;-66
2023/08/04 01:02:36;;;;;;;1.27;0.10;;;22.20;59.10;;;;;;6293817;28;20082;-65
2023/08/04 01:06:15;;;;;;;0.30;0.22;;;22.20;59.20;;;;;;6292666;28;20052;-66
2023/08/04 01:09:42;;;;;;;0.10;0.10;;;22.20;59.10;;;;;;6275702;28;20048;-66
2023/08/04 01:12:47;;;;;;;0.10;0.10;;;22.20;59.10;;;;;;6293952;28;20629;-66
2023/08/04 01:15:51;;;;;;;;;;;22.20;59.80;;;;;;6294376;28;20041;-66
2023/08/04 01:18:51;;;;;;;0.47;0.20;;;22.20;59.10;;;;;;6294195;28;19908;-66
2023/08/04 01:21:52;;;;;;;0.10;0.10;;;22.20;59.20;;;;;;6293994;28;20505;-66
2023/08/04 01:24:54;;;;;;;0.10;0.10;;;22.20;59.10;;;;;;6293932;28;20481;-66
2023/08/04 01:27:58;;;;;;;0.40;0.20;;;22.20;59.20;;;;;;6293548;28;20140;-66
2023/08/04 01:31:00;;;;;;;0.20;0.20;;;22.20;59.20;;;;;;6293868;28;20028;-66
2023/08/04 01:34:02;;;;;;;0.20;0.10;;;22.20;59.20;;;;;;6293668;28;20059;-66
2023/08/04 01:37:03;;;;;;;0.10;0.10;;;22.20;59.20;;;;;;6293878;28;20036;-66
2023/08/04 01:40:05;;;;;;;0.30;0.25;;;22.20;59.20;;;;;;6293729;28;20028;-66
2023/08/04 01:43:06;;;;;;;0.10;0.10;;;22.20;59.20;;;;;;6292026;28;20032;-66
2023/08/04 01:46:06;;;;;;;0.20;0.20;;;22.20;59.20;;;;;;6293058;28;20101;-66
2023/08/04 01:49:07;;;;;;;0.20;0.20;;;22.20;59.30;;;;;;6293518;28;20106;-66
2023/08/04 01:52:08;;;;;;;0.20;0.10;;;22.20;59.30;;;;;;6291949;28;20028;-66
2023/08/04 01:55:09;;;;;;;0.20;0.20;;;22.20;59.30;;;;;;6293360;28;20082;-66
2023/08/04 01:58:09;;;;;;;0.20;0.15;;;22.20;59.30;;;;;;6292008;28;20024;-66
2023/08/04 02:01:10;;;;;;;0.20;0.20;;;22.20;59.40;;;;;;6291777;28;20041;-66
2023/08/04 02:04:11;;;;;;;0.10;0.10;;;22.20;59.40;;;;;;6293019;28;20040;-66
2023/08/04 02:07:11;;;;;;;0.20;0.20;;;22.20;59.40;;;;;;6292810;28;20272;-66
2023/08/04 02:10:12;;;;;;;0.20;0.20;;;22.20;59.40;;;;;;6292950;28;20040;-66
2023/08/04 02:13:13;;;;;;;0.20;0.20;;;22.20;59.40;;;;;;6294027;28;20054;-66
2023/08/04 02:16:14;;;;;;;0.20;0.10;;;22.20;59.50;;;;;;6296820;28;20715;-66
2023/08/04 02:19:14;;;;;;;0.30;0.30;;;22.20;59.40;;;;;;6293204;28;20098;-66
2023/08/04 02:22:15;;;;;;;0.40;0.17;;;22.20;59.40;;;;;;6291396;28;20033;-66
2023/08/04 02:25:16;;;;;;;0.10;0.10;;;22.20;59.50;;;;;;6291569;28;20043;-66
2023/08/04 02:28:17;;;;;;;0.20;0.20;;;22.20;59.50;;;;;;6292627;28;20094;-66
2023/08/04 02:31:18;;;;;;;0.20;0.20;;;22.20;59.50;;;;;;6292857;28;20036;-66
2023/08/04 02:34:19;;;;;;;0.20;0.10;;;22.20;59.50;;;;;;6291396;28;20028;-66
2023/08/04 02:37:20;;;;;;;0.32;0.22;;;22.20;59.50;;;;;;6292580;28;20036;-66
2023/08/04 02:40:21;;;;;;;0.10;0.10;;;22.20;59.50;;;;;;6292623;28;20025;-67
2023/08/04 02:43:21;;;;;;;0.25;0.20;;;22.20;59.50;;;;;;6292635;28;20604;-66
2023/08/04 02:46:25;;;;;;;0.10;0.10;;;22.10;59.50;;;;;;6292142;28;20040;-66
2023/08/04 02:49:26;;;;;;;0.10;0.10;;;22.20;59.50;;;;;;6292680;28;20034;-66
2023/08/04 02:52:26;;;;;;;0.30;0.22;;;22.20;59.60;;;;;;6291387;28;20067;-66
2023/08/04 02:55:29;;;;;;;0.17;0.17;;;22.20;59.60;;;;;;6292347;28;20415;-66
2023/08/04 02:58:30;;;;;;;0.30;0.20;;;22.10;59.50;;;;;;6291480;28;20048;-66
2023/08/04 03:01:31;;;;;;;0.20;0.20;;;22.10;59.50;;;;;;6290342;28;20048;-66
2023/08/04 03:04:31;;;;;;;0.10;0.10;;;22.10;59.50;;;;;;6291084;28;20136;-66
2023/08/04 03:07:32;;;;;;;0.20;0.10;;;22.10;59.50;;;;;;6291935;28;20036;-66
2023/08/04 03:10:33;;;;;;;0.10;0.10;;;22.10;59.50;;;;;;6292174;28;20036;-66
2023/08/04 03:13:34;;;;;;;0.10;0.10;;;22.10;59.50;;;;;;6292049;28;20045;-67
2023/08/04 03:16:34;;;;;;;0.30;0.20;;;22.10;59.60;;;;;;6291948;28;20033;-66
2023/08/04 03:19:35;;;;;;;0.20;0.20;;;22.10;59.60;;;;;;6292372;28;20025;-66
2023/08/04 03:22:36;;;;;;;0.20;0.10;;;22.10;60.30;;;;;;6295155;28;20497;-66
2023/08/04 03:25:37;;;;;;;0.50;0.40;;;22.10;59.60;;;;;;6296739;28;20040;-66
2023/08/04 03:28:37;;;;;;;0.13;0.13;;;22.10;59.60;;;;;;6296423;28;20055;-66
2023/08/04 03:31:38;;;;;;;0.65;0.25;;;22.10;59.60;;;;;;6296496;28;20071;-66
2023/08/04 03:34:39;;;;;;;0.47;0.25;;;22.10;59.60;;;;;;6296196;28;20064;-66
2023/08/04 03:37:40;;;;;;;0.60;0.38;;;22.10;59.60;;;;;;6295793;28;20102;-66
2023/08/04 03:40:41;;;;;;;0.32;0.17;;;22.10;59.70;;;;;;6296538;28;20118;-66
2023/08/04 03:43:43;;;;;;;0.20;0.20;;;22.10;59.60;;;;;;6271807;28;20060;-66
2023/08/04 03:46:43;;;;;;;0.17;0.17;;;22.10;59.70;;;;;;6279030;28;20028;-66
2023/08/04 03:49:44;;;;;;;0.20;0.20;;;22.10;59.70;;;;;;6295823;28;20074;-66
2023/08/04 03:52:45;;;;;;;0.20;0.20;;;22.10;59.70;;;;;;6295913;28;20417;-66
2023/08/04 03:55:45;;;;;;;0.13;0.13;;;22.10;59.70;;;;;;6295996;28;20029;-67
2023/08/04 03:58:46;;;;;;;0.10;0.10;;;22.10;59.80;;;;;;6294762;28;20047;-66
2023/08/04 04:01:47;;;;;;;0.30;0.20;;;22.10;59.70;;;;;;6295587;28;20117;-66
2023/08/04 04:04:47;;;;;;;0.30;0.20;;;22.10;59.70;;;;;;6295731;28;20717;-66
2023/08/04 04:07:48;;;;;;;0.20;0.20;;;22.10;59.80;;;;;;6295203;28;20040;-66
2023/08/04 04:10:49;;;;;;;0.10;0.10;;;22.10;59.80;;;;;;6295935;28;20533;-66
2023/08/04 04:13:50;;;;;;;0.30;0.30;;;22.10;59.80;;;;;;6296059;28;20444;-66
2023/08/04 04:16:50;;;;;;;0.17;0.17;;;22.10;59.80;;;;;;6315847;28;20043;-66
2023/08/04 04:19:51;;;;;;;0.10;0.10;;;22.10;59.80;;;;;;6295192;28;20504;-66
2023/08/04 04:22:53;;;;;;;0.30;0.20;;;22.10;59.70;;;;;;6295412;28;20036;-66
2023/08/04 04:25:53;;;;;;;0.10;0.10;;;22.10;59.80;;;;;;6295119;28;20032;-66
2023/08/04 04:28:54;;;;;;;0.15;0.10;;;22.10;59.80;;;;;;6295041;28;20877;-66
2023/08/04 04:31:55;;;;;;;0.40;0.30;;;22.10;59.80;;;;;;6294001;28;20036;-66
2023/08/04 04:34:55;;;;;;;0.50;0.20;;;22.10;59.80;;;;;;6293398;28;20396;-66
2023/08/04 04:37:56;;;;;;;0.28;0.20;;;22.10;59.80;;;;;;6293481;28;20563;-66
2023/08/04 04:41:00;;;;;;;0.30;0.30;;;22.10;59.80;;;;;;6294827;28;20068;-66
2023/08/04 04:44:02;;;;;;;0.20;0.20;;;22.10;59.80;;;;;;6293454;28;20111;-66
2023/08/04 04:47:04;;;;;;;0.30;0.30;;;22.10;59.80;;;;;;6294744;28;20028;-66
2023/08/04 04:50:05;;;;;;;0.90;0.38;;;22.10;59.80;;;;;;6293272;28;20035;-66
2023/08/04 04:53:06;;;;;;;0.43;0.30;;;22.10;59.80;;;;;;6294299;28;20052;-66
2023/08/04 04:56:07;;;;;;;0.68;0.30;;;22.10;59.80;;;;;;6294777;28;20013;-66
2023/08/04 04:59:08;;;;;;;0.40;0.30;;;22.10;59.80;;;;;;6293861;28;20037;-66
2023/08/04 05:02:08;;;;;;;0.13;0.13;;;22.10;59.80;;;;;;6293481;28;20064;-66
2023/08/04 05:05:09;;;;;;;0.30;0.30;;;22.10;59.80;;;;;;6293943;28;20044;-66
2023/08/04 05:08:10;;;;;;;1.02;0.30;;;22.10;59.80;;;;;;6293981;28;20032;-66
2023/08/04 05:11:11;;;;;;;0.30;0.30;;;22.10;59.90;;;;;;6294039;28;20032;-66
2023/08/04 05:14:11;;;;;;;0.25;0.22;;;22.10;59.90;;;;;;6299404;28;20035;-66
2023/08/04 05:17:12;;;;;;;0.32;0.30;;;22.10;59.90;;;;;;6294117;28;20036;-66
2023/08/04 05:20:13;;;;;;;0.47;0.28;;;22.10;59.90;;;;;;6292437;28;20583;-66
2023/08/04 05:23:15;;;;;;;0.30;0.30;;;22.10;59.90;;;;;;6293741;28;20033;-66
2023/08/04 05:26:16;;;;;;;0.40;0.30;;;22.10;59.90;;;;;;6292808;28;20671;-66
2023/08/04 05:29:17;;;;;;;0.73;0.28;;;22.10;59.90;;;;;;6292221;28;20045;-66
2023/08/04 05:32:17;;;;;;;0.30;0.30;;;22.10;59.90;;;;;;6294058;28;20385;-66
2023/08/04 05:35:18;;;;;;;0.80;0.30;;;22.10;59.90;;;;;;6282333;28;20071;-67
2023/08/04 05:38:19;;;;;;;0.40;0.30;;;22.10;60.00;;;;;;6292482;28;20108;-66
2023/08/04 05:41:20;;;;;;;0.40;0.30;;;22.10;60.00;;;;;;6292125;28;20043;-66
2023/08/04 05:44:22;;;;;;;0.55;0.30;;;22.10;59.90;;;;;;6291655;28;20036;-66
2023/08/04 05:47:25;;;;;;;0.30;0.30;;;22.10;60.00;;;;;;6292111;28;20032;-66
2023/08/04 05:50:27;;;;;;;1.02;0.45;;;22.10;60.00;;;;;;6292067;28;20029;-66
2023/08/04 05:53:28;;;;;;;0.30;0.30;;;22.10;60.00;;;;;;6291324;28;20035;-66
2023/08/04 05:56:29;;;;;;;1.42;0.45;;;22.10;59.90;;;;;;6292233;28;20024;-66
2023/08/04 05:59:30;;;;;;;0.30;0.30;;;22.10;60.00;;;;;;6289671;28;20032;-66
2023/08/04 06:02:30;;;;;;;0.57;0.25;;;22.10;60.00;;;;;;6291255;28;20107;-66
2023/08/04 06:05:31;;;;;;;0.25;0.25;;;22.10;60.00;;;;;;6293083;28;20090;-66
2023/08/04 06:08:32;;;;;;;0.10;0.10;;;22.10;60.00;;;;;;6294130;28;20454;-66
2023/08/04 06:11:33;;;;;;;0.77;0.30;;;22.10;60.00;;;;;;6293719;28;20028;-66
2023/08/04 06:14:33;;;;;;;0.40;0.40;;;22.10;60.00;;;;;;6294978;28;20016;-67
2023/08/04 06:17:34;;;;;;;0.52;0.25;;;22.10;60.00;;;;;;6294680;28;20102;-67
2023/08/04 06:20:35;;;;;;;0.65;0.43;;;22.10;60.00;;;;;;6295226;28;20157;-67
2023/08/04 06:23:35;;;;;;;0.93;0.40;;;22.10;60.00;;;;;;6294448;28;20029;-67
2023/08/04 06:26:36;;;;;;;0.40;0.30;;;22.10;60.00;;;;;;6289609;28;20029;-67
2023/08/04 06:29:37;;;;;;;0.30;0.30;;;22.10;59.80;;;;;;6286249;28;20420;-67
2023/08/04 06:32:38;;;;;;;0.88;0.50;;;22.10;60.00;;;;;;6293834;28;20040;-67
2023/08/04 06:35:41;;;;;;;1.15;0.50;;;22.10;59.90;;;;;;6294916;28;20031;-67
2023/08/04 06:38:42;;;;;;;1.15;0.40;;;22.20;59.70;;;;;;6294746;28;20032;-67
2023/08/04 06:41:43;;;;;;;1.27;0.40;;;22.30;58.50;;;;;;6295126;28;20039;-67
2023/08/04 06:44:44;;;;;;;0.70;0.40;;;22.40;57.80;;;;;;6294729;28;20389;-67
2023/08/04 06:47:45;;;;;;;1.17;0.40;;;22.50;56.40;;;;;;6295296;28;20044;-66
2023/08/04 06:50:46;;;;;;;0.25;0.25;;;22.70;55.70;;;;;;6295129;28;20025;-66
2023/08/04 06:53:47;;;;;;;0.60;0.43;;;22.90;55.10;;;;;;6295202;28;20029;-67
2023/08/04 06:56:47;;;;;;;0.70;0.43;;;23.00;54.60;;;;;;6291269;28;20016;-67
2023/08/04 06:59:48;;;;;;;0.85;0.40;;;23.10;54.30;;;;;;6298766;28;20020;-65
2023/08/04 07:02:49;;;;;;;0.40;0.30;;;23.20;53.80;;;;;;6288027;28;20029;-65
2023/08/04 07:05:49;;;;;;;0.65;0.38;;;23.30;53.60;;;;;;6298221;28;20075;-65
2023/08/04 07:08:50;;;;;;;0.55;0.40;;;23.30;53.40;;;;;;6297690;28;20477;-64
2023/08/04 07:11:52;;;;;;;0.85;0.32;;;23.40;53.20;;;;;;6296385;28;20029;-65
2023/08/04 07:14:53;;;;;;;2.72;0.50;;;23.40;53.10;;;;;;6301881;28;20436;-65
2023/08/04 07:17:53;;;;;;;1.13;0.50;;;23.40;53.00;;;;;;6297730;28;20048;-65
2023/08/04 07:21:06;;;;;;;2.38;0.32;;;23.40;52.80;;;;;;6298049;28;20037;-65
2023/08/04 07:24:08;;;;;;;0.98;0.40;;;23.40;52.70;;;;;;6297145;28;20115;-65
2023/08/04 07:27:09;;;;;;;0.82;0.40;;;23.50;52.60;;;;;;6297647;28;20036;-65
2023/08/04 07:30:10;;;;;;;1.10;0.52;;;23.50;52.50;;;;;;6292728;28;20390;-65
2023/08/04 07:33:11;;;;;;;0.90;0.60;;;23.50;52.50;;;;;;6297617;28;20028;-65
2023/08/04 07:36:12;;;;;;;1.65;0.52;;;23.50;53.10;;;;;;6295940;28;20508;-65
2023/08/04 07:39:13;;;;;;;0.57;0.40;;;23.50;52.40;;;;;;6297835;28;20040;-65
2023/08/04 07:42:14;;;;;;;1.65;0.45;;;23.50;52.20;;;;;;6296292;28;20060;-65
2023/08/04 07:45:14;;;;;;;1.08;0.32;;;23.50;52.20;;;;;;6295548;28;20036;-64
2023/08/04 07:48:15;;;;;;;0.75;0.50;;;23.50;52.10;;;;;;6297142;28;20056;-65
2023/08/04 07:51:16;;;;;;;0.50;0.30;;;23.50;52.00;;;;;;6297273;28;20104;-65
2023/08/04 07:54:17;;;;;;;0.45;0.30;;;23.50;51.90;;;;;;6297186;28;20061;-65
2023/08/04 07:57:18;;;;;;;0.80;0.30;;;23.50;51.90;;;;;;6297137;28;20089;-65
2023/08/04 08:00:18;;;;;;;0.60;0.57;;;23.50;51.70;;;;;;6296709;28;20040;-65
2023/08/04 08:03:19;;;;;;;1.23;0.50;;;23.50;51.70;;;;;;6295200;28;20046;-64
2023/08/04 08:06:20;;;;;;;0.45;0.40;;;23.50;51.70;;;;;;6297159;28;20444;-65
2023/08/04 08:09:20;;;;;;;0.70;0.40;;;23.50;51.50;;;;;;6296383;28;20037;-65
2023/08/04 08:12:21;;;;;;;1.00;0.30;;;23.50;51.40;;;;;;6296848;28;20020;-65
2023/08/04 08:15:22;;;;;;;0.35;0.25;;;23.50;51.50;;;;;;6301744;28;20029;-65
2023/08/04 08:18:23;;;;;;;0.93;0.40;;;23.50;51.40;;;;;;6296646;28;20040;-64
2023/08/04 08:21:23;;;;;;;0.30;0.30;;;23.50;51.40;;;;;;6296882;28;20032;-65
2023/08/04 08:24:24;;;;;;;0.38;0.35;;;23.50;51.30;;;;;;6296247;28;20104;-65
2023/08/04 08:27:25;;;;;;;0.47;0.43;;;23.60;51.20;;;;;;6296421;28;20066;-64
2023/08/04 08:30:25;;;;;;;0.63;0.40;;;23.60;51.20;;;;;;6294462;28;20420;-64
2023/08/04 08:33:26;;;;;;;0.63;0.38;;;23.60;51.20;;;;;;6296353;28;20037;-64
2023/08/04 08:36:28;;;;;;;0.52;0.40;;;23.60;51.10;;;;;;6296255;28;20715;-64
2023/08/04 08:39:30;;;;;;;0.55;0.30;;;23.60;51.20;;;;;;6296140;28;20453;-64
2023/08/04 08:42:33;;;;;;;0.20;0.20;;;23.50;51.00;;;;;;6297403;28;20036;-64
2023/08/04 08:45:38;;;;;;;0.30;0.30;;;23.60;51.20;;;;;;6296512;28;20485;-65
2023/08/04 08:48:42;;;;;;;0.68;0.40;;;23.50;51.10;;;;;;6295775;28;20035;-65
2023/08/04 08:51:48;;;;;;;0.35;0.30;;;23.50;51.00;;;;;;6296174;28;20044;-65
2023/08/04 08:54:49;;;;;;;0.45;0.30;;;23.50;51.00;;;;;;6294367;28;20123;-65
2023/08/04 08:57:50;;;;;;;0.43;0.32;;;23.50;50.90;;;;;;6294683;28;20043;-65
2023/08/04 09:00:51;;;;;;;0.43;0.30;;;23.50;50.90;;;;;;6295742;28;20040;-65
2023/08/04 09:03:53;;;;;;;0.22;0.22;;;23.50;50.90;;;;;;6296270;28;20158;-64
2023/08/04 09:06:56;;;;;;;0.30;0.30;;;23.50;50.90;;;;;;6296701;28;20024;-64
2023/08/04 09:09:58;;;;;;;0.43;0.30;;;23.60;51.50;;;;;;6296790;28;20020;-64
2023/08/04 09:13:00;;;;;;;0.95;0.30;;;23.50;50.70;;;;;;6296794;28;20028;-64
2023/08/04 09:16:02;;;;;;;0.40;0.30;;;23.60;50.70;;;;;;6296529;28;20028;-64
2023/08/04 09:19:05;;;;;;;0.22;0.20;;;23.50;50.60;;;;;;6295402;28;20064;-63
2023/08/04 09:22:06;;;;;;;0.50;0.40;;;23.60;50.60;;;;;;6296566;28;20043;-64
2023/08/04 09:25:07;;;;;;;0.38;0.30;;;23.60;50.70;;;;;;6296505;28;20040;-64
2023/08/04 09:28:14;;;;;;;0.20;0.20;;;23.60;50.70;;;;;;6296429;28;20036;-64
2023/08/04 09:31:15;;;;;;;1.15;0.40;;;23.60;50.60;;;;;;6296513;28;20040;-64
2023/08/04 09:34:15;;;;;;;0.55;0.30;;;23.60;50.50;;;;;;6296458;28;20029;-64
2023/08/04 09:37:16;;;;;;;0.32;0.32;;;23.60;50.50;;;;;;6296124;28;20437;-64
2023/08/04 09:40:19;;;;;;;1.02;0.30;;;23.60;50.40;;;;;;6296048;28;20040;-64
2023/08/04 09:43:20;;;;;;;0.52;0.43;;;23.60;50.60;;;;;;6296405;28;20037;-64
2023/08/04 09:46:21;;;;;;;0.52;0.40;;;23.60;50.40;;;;;;6296113;28;20041;-64
2023/08/04 09:49:22;;;;;;;0.32;0.20;;;23.60;50.50;;;;;;6296201;28;20036;-64
2023/08/04 09:52:30;;;;;;;0.90;0.30;;;23.60;50.40;;;;;;6296228;28;20043;-64
2023/08/04 09:55:31;;;;;;;0.50;0.30;;;23.60;50.20;;;;;;6296074;28;20168;-64
2023/08/04 09:58:33;;;;;;;0.40;0.30;;;23.60;50.30;;;;;;6296114;28;20361;-64
2023/08/04 10:01:34;;;;;;;0.20;0.20;;;23.60;50.20;;;;;;6295962;28;20401;-64
2023/08/04 10:04:36;;;;;;;0.25;0.25;;;23.60;50.20;;;;;;6294590;28;20064;-64
2023/08/04 10:07:38;;;;;;;0.30;0.30;;;23.60;50.20;;;;;;6295929;28;20037;-64
2023/08/04 10:10:39;;;;;;;0.30;0.30;;;23.60;50.30;;;;;;6295948;28;20483;-64
2023/08/04 10:13:45;;;;;;;0.30;0.20;;;23.60;50.10;;;;;;6295691;28;20062;-64
2023/08/04 10:16:47;;;;;;;0.20;0.20;;;23.60;50.10;;;;;;6295816;28;20021;-64
2023/08/04 10:19:48;;;;;;;0.30;0.20;;;23.60;50.10;;;;;;6295796;28;20051;-63
2023/08/04 10:22:49;;;;;;;0.25;0.25;;;23.60;50.20;;;;;;6309012;28;20028;-64
2023/08/04 10:26:02;;;;;;;0.35;0.30;;;23.60;50.00;;;;;;6315508;28;20032;-64
2023/08/04 10:29:09;;;;;;;0.20;0.20;;;23.60;50.10;;;;;;6292639;28;20060;-63
2023/08/04 10:32:10;;;;;;;0.20;0.20;;;23.60;49.90;;;;;;6287627;28;20028;-63
2023/08/04 10:35:19;;;;;;;0.30;0.30;;;23.60;50.00;;;;;;6299539;28;20036;-64
2023/08/04 10:38:20;;;;;;;0.30;0.20;;;23.60;50.00;;;;;;6299122;28;20025;-63
2023/08/04 10:41:21;;;;;;;0.40;0.38;;;23.60;49.90;;;;;;6298464;28;20043;-64
2023/08/04 10:44:48;;;;;;;0.95;0.40;;;23.60;49.90;;;;;;6298772;28;20025;-63
2023/08/04 10:47:54;;;;;;;0.15;0.15;;;23.50;50.00;;;;;;6287901;28;20087;-63
2023/08/04 10:50:54;;;;;;;0.65;0.30;;;23.60;49.80;;;;;;6298985;28;20025;-63
2023/08/04 10:53:55;;;;;;;0.20;0.20;;;23.60;49.70;;;;;;6298922;28;20472;-63
2023/08/04 10:56:56;;;;;;;0.70;0.40;;;23.60;49.90;;;;;;6298611;28;20038;-63
2023/08/04 10:59:57;;;;;;;0.57;0.40;;;23.60;49.90;;;;;;6299122;28;20040;-64
2023/08/04 11:02:58;;;;;;;0.52;0.38;;;23.60;49.70;;;;;;6297728;28;20020;-63
2023/08/04 11:05:59;;;;;;;0.20;0.20;;;23.60;49.70;;;;;;6299339;28;20043;-63
2023/08/04 11:08:59;;;;;;;0.25;0.20;;;23.60;49.80;;;;;;6285697;28;20378;-63
2023/08/04 11:12:03;;;;;;;0.47;0.20;;;23.60;49.70;;;;;;6299008;28;20033;-63
2023/08/04 11:15:08;;;;;;;0.20;0.20;;;23.60;49.70;;;;;;6309023;28;20024;-64
2023/08/04 11:18:15;;;;;;;0.70;0.20;;;23.60;49.70;;;;;;6305450;28;20124;-64
2023/08/04 11:21:16;;;;;;;0.65;0.35;;;23.60;49.70;;;;;;6273206;28;20095;-63
2023/08/04 11:24:23;;;;;;;0.43;0.38;;;23.60;49.60;;;;;;6303351;28;20028;-64
2023/08/04 11:27:24;;;;;;;0.35;0.20;;;23.60;49.60;;;;;;6296197;28;20032;-64
2023/08/04 11:30:25;;;;;;;0.35;0.30;;;23.60;49.70;;;;;;6297999;28;20040;-64
2023/08/04 11:33:26;;;;;;;0.30;0.30;;;23.60;49.60;;;;;;6297546;28;20033;-64
2023/08/04 11:36:27;;;;;;;0.45;0.28;;;23.60;49.70;;;;;;6297645;28;20036;-64
2023/08/04 11:39:28;;;;;;;0.40;0.30;;;23.60;49.60;;;;;;6297068;28;20520;-64
2023/08/04 11:42:29;;;;;;;0.68;0.50;;;23.60;49.60;;;;;;6296634;28;20024;-64
2023/08/04 11:45:31;;;;;;;0.50;0.40;;;23.60;49.50;;;;;;6297426;28;20174;-65
2023/08/04 11:48:35;;;;;;;1.73;0.40;;;23.60;49.60;;;;;;6298216;28;20458;-66
2023/08/04 11:51:41;;;;;;;0.13;0.13;;;23.60;49.60;;;;;;6298149;28;20042;-65
2023/08/04 11:54:53;;;;;;;0.30;0.30;;;23.60;49.60;;;;;;6297787;28;20037;-65
2023/08/04 11:57:55;;;;;;;0.60;0.40;;;23.60;49.60;;;;;;6297509;28;20147;-66
2023/08/04 12:00:55;;;;;;;0.50;0.40;;;23.60;49.60;;;;;;6296601;28;20029;-65
2023/08/04 12:03:56;;;;;;;0.30;0.30;;;23.60;49.50;;;;;;6297313;28;20052;-67
2023/08/04 12:07:01;;;;;;;0.30;0.30;;;23.60;49.60;;;;;;6297327;28;20090;-66
2023/08/04 12:10:03;;;;;;;0.30;0.30;;;23.60;49.40;;;;;;6297279;28;20385;-65
2023/08/04 12:13:04;;;;;;;0.40;0.30;;;23.60;49.40;;;;;;6297197;28;20052;-67
2023/08/04 12:16:04;;;;;;;0.55;0.40;;;23.60;49.40;;;;;;6297247;28;20104;-65
2023/08/04 12:19:06;;;;;;;0.65;0.30;;;23.60;49.40;;;;;;6297211;28;20040;-65
2023/08/04 12:22:06;;;;;;;0.98;0.30;;;23.60;49.40;;;;;;6297308;28;20024;-66
2023/08/04 12:25:08;;;;;;;0.60;0.20;;;23.60;49.40;;;;;;6296544;28;20408;-66
2023/08/04 12:28:11;;;;;;;0.40;0.30;;;23.60;49.20;;;;;;6296445;28;20032;-65
2023/08/04 12:31:12;;;;;;;0.40;0.30;;;23.60;49.30;;;;;;6296599;28;20044;-67
2023/08/04 12:34:13;;;;;;;0.32;0.30;;;23.60;49.30;;;;;;6296763;28;20089;-65
2023/08/04 12:37:14;;;;;;;0.20;0.20;;;23.60;49.30;;;;;;6296956;28;20028;-65
2023/08/04 12:40:15;;;;;;;0.32;0.22;;;23.60;49.30;;;;;;6295892;28;20045;-67
2023/08/04 12:43:15;;;;;;;0.35;0.32;;;23.60;49.20;;;;;;6292056;28;20031;-67
2023/08/04 12:46:16;;;;;;;0.73;0.40;;;23.60;49.20;;;;;;6296226;28;20055;-65
2023/08/04 12:49:17;;;;;;;0.57;0.40;;;23.60;49.20;;;;;;6296084;28;20064;-66
2023/08/04 12:52:18;;;;;;;0.28;0.28;;;23.60;49.20;;;;;;6295039;28;20389;-65
2023/08/04 12:55:19;;;;;;;0.32;0.30;;;23.60;49.20;;;;;;6295453;28;20032;-65
2023/08/04 12:58:20;;;;;;;0.30;0.30;;;23.60;49.10;;;;;;6288981;28;20048;-66
2023/08/04 13:01:21;;;;;;;0.47;0.30;;;23.60;49.00;;;;;;6296247;28;20082;-66
2023/08/04 13:04:21;;;;;;;0.88;0.40;;;23.60;49.10;;;;;;6295880;28;20102;-64
2023/08/04 13:07:22;;;;;;;0.32;0.20;;;23.60;49.10;;;;;;6297412;28;20028;-66
2023/08/04 13:10:23;;;;;;;0.90;0.22;;;23.60;49.20;;;;;;6293556;28;20127;-66
2023/08/04 13:13:24;;;;;;;0.50;0.40;;;23.60;49.00;;;;;;6295454;28;20037;-65
2023/08/04 13:16:25;;;;;;;0.22;0.22;;;23.60;49.00;;;;;;6294619;28;20032;-66
2023/08/04 13:19:25;;;;;;;0.30;0.30;;;23.60;48.90;;;;;;6294956;28;20448;-68
2023/08/04 13:22:26;;;;;;;2.42;0.32;;;23.60;49.10;;;;;;6294561;28;20531;-65
2023/08/04 13:25:27;;;;;;;1.65;0.30;;;23.60;49.00;;;;;;6294111;28;20029;-65
2023/08/04 13:28:28;;;;;;;0.73;0.35;;;23.60;49.00;;;;;;6293642;28;20423;-65
2023/08/04 13:31:29;;;;;;;0.57;0.30;;;23.60;48.90;;;;;;6293650;28;20037;-65
2023/08/04 13:34:29;;;;;;;0.25;0.25;;;23.60;48.90;;;;;;6293499;28;20554;-65
2023/08/04 13:37:30;;;;;;;0.35;0.22;;;23.60;49.00;;;;;;6293488;28;20037;-65
2023/08/04 13:40:31;;;;;;;0.60;0.50;;;23.60;49.00;;;;;;6292684;28;20044;-65
2023/08/04 13:43:31;;;;;;;0.30;0.30;;;23.60;49.70;;;;;;6294037;28;20835;-65
2023/08/04 13:46:33;;;;;;;0.30;0.30;;;23.60;49.00;;;;;;6293819;28;20046;-65
2023/08/04 13:49:34;;;;;;;0.93;0.30;;;23.60;48.90;;;;;;6292712;28;20036;-65
2023/08/04 13:52:34;;;;;;;0.43;0.30;;;23.60;48.80;;;;;;6293896;28;20432;-65
2023/08/04 13:55:38;;;;;;;0.30;0.30;;;23.60;48.90;;;;;;6293927;28;20153;-64
2023/08/04 13:58:39;;;;;;;0.32;0.28;;;23.60;48.90;;;;;;6294492;28;20045;-64
2023/08/04 14:01:39;;;;;;;0.47;0.40;;;23.60;48.90;;;;;;6294433;28;20036;-66
2023/08/04 14:04:40;;;;;;;0.80;0.40;;;23.60;48.80;;;;;;6293648;28;20044;-66
2023/08/04 14:07:41;;;;;;;0.30;0.30;;;23.60;48.80;;;;;;6293861;28;20111;-68
2023/08/04 14:10:43;;;;;;;0.40;0.32;;;23.60;48.80;;;;;;6294678;28;20100;-68
2023/08/04 14:13:45;;;;;;;0.15;0.15;;;23.60;48.80;;;;;;6293418;28;20139;-67
2023/08/04 14:16:46;;;;;;;0.32;0.20;;;23.60;48.80;;;;;;6286142;28;20052;-68
2023/08/04 14:19:47;;;;;;;0.20;0.20;;;23.60;48.70;;;;;;6294213;28;20039;-68
2023/08/04 14:22:49;;;;;;;0.60;0.40;;;23.60;48.80;;;;;;6301931;28;20028;-68
2023/08/04 14:25:50;;;;;;;0.68;0.30;;;23.60;48.70;;;;;;6296449;28;20116;-68
2023/08/04 14:28:50;;;;;;;0.20;0.20;;;23.60;48.70;;;;;;6294150;28;20392;-68
2023/08/04 14:31:51;;;;;;;0.35;0.20;;;23.60;48.70;;;;;;6294391;28;20020;-69
2023/08/04 14:34:52;;;;;;;0.28;0.28;;;23.60;48.70;;;;;;6294901;28;20389;-68
2023/08/04 14:37:52;;;;;;;0.43;0.40;;;23.60;48.70;;;;;;6295160;28;20507;-69
2023/08/04 14:40:53;;;;;;;0.45;0.28;;;23.60;48.70;;;;;;6293248;28;20426;-67
2023/08/04 14:43:54;;;;;;;0.20;0.20;;;23.60;48.70;;;;;;6295010;28;20043;-69
2023/08/04 14:46:55;;;;;;;0.40;0.30;;;23.60;48.70;;;;;;6292949;28;20468;-68
2023/08/04 14:49:55;;;;;;;0.20;0.20;;;23.60;48.70;;;;;;6294226;28;20044;-66
2023/08/04 14:52:56;;;;;;;0.25;0.25;;;23.60;48.70;;;;;;6294687;28;20025;-68
2023/08/04 14:56:01;;;;;;;0.30;0.30;;;23.60;48.70;;;;;;6293045;28;20064;-68
2023/08/04 14:59:02;;;;;;;0.65;0.47;;;23.60;48.70;;;;;;6294501;28;20078;-68
2023/08/04 15:02:03;;;;;;;0.70;0.50;;;23.60;48.60;;;;;;6293902;28;20604;-68
2023/08/04 15:05:05;;;;;;;0.70;0.40;;;23.60;48.50;;;;;;6294242;28;20043;-66
2023/08/04 15:08:05;;;;;;;0.47;0.40;;;23.70;48.60;;;;;;6293737;28;20028;-66
2023/08/04 15:11:08;;;;;;;1.65;0.50;;;23.60;48.60;;;;;;6293908;28;20440;-66
2023/08/04 15:14:11;;;;;;;0.88;0.47;;;23.60;48.60;;;;;;6293626;28;20033;-66
2023/08/04 15:17:11;;;;;;;0.40;0.40;;;23.60;48.60;;;;;;6295234;28;20481;-66
2023/08/04 15:20:13;;;;;;;0.95;0.57;;;23.60;49.20;;;;;;6299830;28;20043;-66
2023/08/04 15:24:06;;;;;;;0.70;0.45;;;23.60;48.60;;;;;;6297752;28;20029;-66
2023/08/04 15:27:17;;;;;;;0.60;0.50;;;23.60;48.50;;;;;;6297384;28;20025;-66
2023/08/04 15:30:18;;;;;;;0.43;0.40;;;23.60;48.50;;;;;;6294015;28;20033;-66
2023/08/04 15:33:18;;;;;;;0.35;0.35;;;23.60;48.50;;;;;;6298786;28;20047;-66
2023/08/04 15:36:19;;;;;;;0.55;0.40;;;23.60;48.50;;;;;;6298440;28;20127;-67
2023/08/04 15:39:20;;;;;;;0.32;0.32;;;23.60;48.50;;;;;;6297754;28;20036;-68
2023/08/04 15:42:21;;;;;;;0.45;0.40;;;23.60;48.40;;;;;;6300001;28;20108;-67
2023/08/04 15:45:22;;;;;;;0.98;0.40;;;23.60;48.50;;;;;;6296499;28;20043;-68
2023/08/04 15:48:25;;;;;;;0.32;0.30;;;23.60;48.50;;;;;;6296304;28;20040;-67